Time;durP1;ratioP1;P1;durP2;ratioP2;P2;SDS_P1;SDS_P2;PMS_P1;PMS_P2;Temp;Humidity;BMP_temperature;BMP_pressure;BME280_temperature;BME280_humidity;BME280_pressure;Samples;Min_cycle;Max_cycle;Signal;HPM_P1;HPM_P2
2022/09/27 00:01:47;;;;;;;1.02;0.93;;;;;;;21.61;77.22;94817.22;5056474;28;20198;-60
2022/09/27 00:04:14;;;;;;;2.67;1.10;;;;;;;21.60;77.35;94819.22;5053071;28;20202;-60
2022/09/27 00:06:41;;;;;;;1.25;1.15;;;;;;;21.59;77.35;94822.28;5053401;28;20206;-60
2022/09/27 00:09:08;;;;;;;1.80;1.20;;;;;;;21.58;77.42;94815.19;5057463;28;20198;-60
2022/09/27 00:11:38;;;;;;;1.10;1.00;;;;;;;21.58;77.48;94821.47;5054919;27;20233;-60
2022/09/27 00:14:07;;;;;;;1.30;0.90;;;;;;;21.57;77.37;94833.59;5061398;28;20206;-60
2022/09/27 00:16:36;;;;;;;1.13;0.88;;;;;;;21.58;77.48;94828.91;5050470;28;20225;-60
2022/09/27 00:19:06;;;;;;;0.90;0.90;;;;;;;21.57;77.34;94816.31;5061213;28;20245;-60
2022/09/27 00:21:33;;;;;;;1.50;0.90;;;;;;;21.58;77.50;94820.69;5051236;28;20228;-60
2022/09/27 00:24:01;;;;;;;1.08;0.95;;;;;;;21.57;77.49;94828.09;5054377;28;20229;-60
2022/09/27 00:26:28;;;;;;;1.33;1.10;;;;;;;21.57;77.42;94822.63;5055872;28;20202;-60
2022/09/27 00:28:57;;;;;;;2.97;1.17;;;;;;;21.57;77.44;94819.06;5051901;28;20292;-60
2022/09/27 00:31:28;;;;;;;1.95;0.88;;;;;;;21.57;77.42;94821.81;5064961;28;20221;-60
2022/09/27 00:33:56;;;;;;;1.33;0.98;;;;;;;21.56;77.49;94820.19;5064302;28;20229;-60
2022/09/27 00:36:24;;;;;;;1.10;1.00;;;;;;;21.55;77.43;94813.91;5055513;28;20199;-59
2022/09/27 00:38:52;;;;;;;1.00;0.90;;;;;;;21.51;77.29;94796.50;5054181;28;20194;-58
2022/09/27 00:41:22;;;;;;;0.80;0.80;;;;;;;21.56;77.46;94804.53;5051423;28;20209;-60
2022/09/27 00:43:51;;;;;;;1.20;1.00;;;;;;;21.53;77.38;94808.75;5046107;28;20297;-60
2022/09/27 00:46:28;;;;;;;1.10;1.00;;;;;;;21.57;77.18;94802.59;5052460;28;20197;-60
2022/09/27 00:49:03;;;;;;;0.95;0.90;;;;;;;21.56;77.27;94801.78;5057307;28;20237;-60
2022/09/27 00:51:33;;;;;;;2.20;1.00;;;;;;;21.56;77.34;94799.03;5054717;28;20274;-60
2022/09/27 00:54:01;;;;;;;1.10;1.00;;;;;;;21.54;77.33;94801.31;5059230;28;20201;-60
2022/09/27 00:56:31;;;;;;;0.70;0.70;;;;;;;21.57;77.22;94810.81;5062392;28;20282;-61
2022/09/27 00:59:04;;;;;;;1.25;0.95;;;;;;;21.57;77.20;94814.38;5048117;28;20213;-60
2022/09/27 01:01:32;;;;;;;0.95;0.90;;;;;;;21.57;77.16;94814.38;5054599;27;20262;-60
2022/09/27 01:04:04;;;;;;;1.42;1.00;;;;;;;21.56;77.20;94811.97;5054311;28;20204;-58
2022/09/27 01:06:32;;;;;;;1.33;1.00;;;;;;;21.56;77.17;94810.03;5055372;28;20218;-59
2022/09/27 01:08:59;;;;;;;1.50;0.90;;;;;;;21.56;77.12;94812.78;5052660;28;20210;-60
2022/09/27 01:11:37;;;;;;;1.92;0.98;;;;;;;21.55;77.11;94797.44;5050056;28;20313;-60
2022/09/27 01:14:20;;;;;;;1.23;1.13;;;;;;;21.57;77.05;94797.09;5054282;27;20201;-60
2022/09/27 01:17:00;;;;;;;1.20;1.00;;;;;;;21.54;77.01;94784.81;5051606;28;20289;-59
2022/09/27 01:19:50;;;;;;;0.93;0.93;;;;;;;21.55;77.16;94791.94;5056981;28;20230;-60
2022/09/27 01:22:23;;;;;;;1.00;0.82;;;;;;;21.55;77.07;94796.63;5053189;28;20221;-60
2022/09/27 01:25:01;;;;;;;1.33;1.00;;;;;;;21.55;77.13;94791.94;5058918;28;20208;-60
2022/09/27 01:27:51;;;;;;;0.90;0.90;;;;;;;21.54;77.10;94776.59;5055318;28;20209;-60
2022/09/27 01:30:25;;;;;;;1.67;1.02;;;;;;;21.52;77.00;94785.16;5058026;28;20266;-60
2022/09/27 01:33:10;;;;;;;1.30;1.20;;;;;;;21.53;77.04;94788.72;5049287;28;20226;-60
2022/09/27 01:35:49;;;;;;;1.25;0.95;;;;;;;21.52;77.02;94804.38;5054269;28;20197;-60
2022/09/27 01:38:24;;;;;;;1.25;0.90;;;;;;;21.51;76.98;94800.06;5062299;28;20209;-60
2022/09/27 01:41:02;;;;;;;0.90;0.90;;;;;;;21.53;76.99;94796.94;5054426;28;20209;-60
2022/09/27 01:43:58;;;;;;;1.40;1.02;;;;;;;21.51;77.12;94788.28;5051273;28;20359;-60
2022/09/27 01:46:35;;;;;;;1.60;1.08;;;;;;;21.52;77.18;94789.88;5053304;28;20229;-60
2022/09/27 01:49:33;;;;;;;1.33;1.00;;;;;;;21.52;77.26;94800.88;5054812;28;20214;-60
2022/09/27 01:52:05;;;;;;;1.08;0.95;;;;;;;21.51;77.14;94791.03;5052884;28;20228;-60
2022/09/27 01:54:38;;;;;;;1.13;0.90;;;;;;;21.49;76.76;94779.56;5051906;28;20201;-60
2022/09/27 01:57:23;;;;;;;1.10;1.00;;;;;;;21.51;77.08;94778.09;5051591;28;20297;-62
2022/09/27 01:59:54;;;;;;;1.45;0.80;;;;;;;21.51;77.14;94774.53;5057950;27;20205;-59
2022/09/27 02:02:47;;;;;;;1.45;0.82;;;;;;;21.51;77.21;94802.81;5055625;28;20217;-60
2022/09/27 02:05:33;;;;;;;1.00;0.90;;;;;;;21.52;77.01;94792.63;5054116;28;20223;-61
2022/09/27 02:08:18;;;;;;;0.80;0.80;;;;;;;21.52;77.05;94787.13;5046859;28;20214;-60
2022/09/27 02:10:48;;;;;;;1.10;1.00;;;;;;;21.51;77.08;94793.75;5058872;28;20270;-60
2022/09/27 02:13:22;;;;;;;1.15;1.00;;;;;;;21.47;77.03;94788.13;5073602;27;20236;-60
2022/09/27 02:16:01;;;;;;;2.25;0.90;;;;;;;21.49;77.00;94785.84;5060972;28;20207;-60
2022/09/27 02:18:50;;;;;;;0.80;0.80;;;;;;;21.50;77.01;94800.38;5056353;27;20212;-60
2022/09/27 02:21:19;;;;;;;0.85;0.82;;;;;;;21.49;77.00;94799.59;5053588;28;20313;-60
2022/09/27 02:23:51;;;;;;;0.80;0.70;;;;;;;21.51;77.10;94799.25;5057246;28;20211;-60
2022/09/27 02:26:24;;;;;;;1.65;1.00;;;;;;;21.50;77.12;94790.22;5052811;28;20206;-60
2022/09/27 02:28:57;;;;;;;0.80;0.80;;;;;;;21.50;77.03;94792.16;5047997;28;20214;-60
2022/09/27 02:31:31;;;;;;;2.30;0.85;;;;;;;21.49;77.08;94779.56;5064894;28;20197;-60
2022/09/27 02:34:04;;;;;;;0.73;0.73;;;;;;;21.49;77.13;94782.31;5055352;28;20218;-60
2022/09/27 02:36:32;;;;;;;1.95;1.00;;;;;;;21.48;77.11;94787.00;5053850;28;20225;-60
2022/09/27 02:39:00;;;;;;;1.00;0.90;;;;;;;21.49;77.14;94774.06;5066900;28;20209;-60
2022/09/27 02:41:28;;;;;;;1.10;0.85;;;;;;;21.47;77.13;94773.59;5051830;27;20243;-59
2022/09/27 02:43:59;;;;;;;1.00;0.90;;;;;;;21.47;77.07;94790.06;5051295;27;20217;-59
2022/09/27 02:47:02;;;;;;;1.00;0.90;;;;;;;21.48;77.09;94784.25;5062359;28;20204;-60
2022/09/27 02:49:46;;;;;;;1.20;1.08;;;;;;;21.48;77.17;94786.19;5063197;28;20198;-60
2022/09/27 02:52:35;;;;;;;0.90;0.90;;;;;;;21.45;77.25;94798.63;5054209;27;20257;-60
2022/09/27 02:55:11;;;;;;;0.82;0.80;;;;;;;21.47;77.17;94801.06;5061512;28;20210;-60
2022/09/27 02:58:13;;;;;;;1.23;0.90;;;;;;;21.47;77.22;94807.34;5055559;28;20209;-60
2022/09/27 03:01:08;;;;;;;1.40;0.82;;;;;;;21.46;77.27;94800.25;5038176;27;20206;-59
2022/09/27 03:04:10;;;;;;;1.15;0.80;;;;;;;21.44;77.29;94783.31;5056121;28;20212;-59
2022/09/27 03:06:41;;;;;;;1.05;0.93;;;;;;;21.45;77.30;94786.84;5060114;28;20202;-60
2022/09/27 03:09:17;;;;;;;1.05;0.95;;;;;;;21.44;77.32;94802.53;5051411;28;20222;-60
2022/09/27 03:11:45;;;;;;;1.45;0.90;;;;;;;21.39;77.28;94794.50;5063406;27;20236;-59
2022/09/27 03:14:12;;;;;;;0.80;0.80;;;;;;;21.44;77.34;94798.97;5062500;28;20289;-60
2022/09/27 03:16:47;;;;;;;0.88;0.88;;;;;;;21.44;77.18;94790.72;5061308;28;20198;-59
2022/09/27 03:19:32;;;;;;;0.80;0.80;;;;;;;21.44;77.26;94768.78;5059968;28;20224;-60
2022/09/27 03:22:23;;;;;;;1.00;0.90;;;;;;;21.45;77.13;94781.34;5056073;28;20212;-59
2022/09/27 03:24:51;;;;;;;1.40;1.00;;;;;;;21.45;77.20;94795.91;5055267;28;20212;-60
2022/09/27 03:27:18;;;;;;;1.80;0.80;;;;;;;21.47;77.06;94795.56;5051018;28;20206;-59
2022/09/27 03:29:45;;;;;;;0.95;0.85;;;;;;;21.47;77.13;94801.06;5048634;27;20202;-60
2022/09/27 03:32:12;;;;;;;0.93;0.82;;;;;;;21.48;77.08;94810.91;5052196;28;20210;-60
2022/09/27 03:35:05;;;;;;;0.77;0.77;;;;;;;21.47;77.08;94801.84;5057962;28;20285;-60
2022/09/27 03:37:34;;;;;;;1.05;0.90;;;;;;;21.48;77.10;94802.66;5050748;28;20203;-60
2022/09/27 03:40:02;;;;;;;0.93;0.80;;;;;;;21.47;76.92;94804.59;5054361;28;20194;-60
2022/09/27 03:42:29;;;;;;;1.10;1.00;;;;;;;21.48;77.04;94810.91;5055275;28;20210;-60
2022/09/27 03:44:56;;;;;;;0.80;0.80;;;;;;;21.50;77.03;94822.34;5055439;28;20232;-60
2022/09/27 03:47:23;;;;;;;0.80;0.80;;;;;;;21.49;76.93;94820.75;5050111;28;20209;-60
2022/09/27 03:49:50;;;;;;;0.80;0.80;;;;;;;21.48;76.89;94821.88;5063131;28;20206;-60
2022/09/27 03:52:18;;;;;;;0.80;0.80;;;;;;;21.49;76.87;94820.75;5052799;27;20263;-59
2022/09/27 03:54:46;;;;;;;1.75;0.70;;;;;;;21.50;76.80;94823.16;5049708;28;20198;-59
2022/09/27 03:57:13;;;;;;;0.82;0.80;;;;;;;21.50;77.03;94819.63;5052944;28;20206;-59
2022/09/27 03:59:40;;;;;;;0.80;0.80;;;;;;;21.51;76.84;94832.22;5054054;28;20197;-59
2022/09/27 04:02:28;;;;;;;1.23;0.90;;;;;;;21.51;76.77;94818.47;5052631;28;20214;-60
2022/09/27 04:05:14;;;;;;;2.35;0.90;;;;;;;21.51;76.57;94813.00;5050699;28;20220;-59
2022/09/27 04:07:46;;;;;;;2.33;1.00;;;;;;;21.51;76.66;94818.47;5063596;28;20202;-59
2022/09/27 04:10:15;;;;;;;1.52;1.10;;;;;;;21.51;76.81;94827.53;5059619;27;20234;-60
2022/09/27 04:12:42;;;;;;;1.33;0.82;;;;;;;21.52;76.72;94820.88;5057303;28;20225;-60
2022/09/27 04:15:11;;;;;;;0.90;0.90;;;;;;;21.51;76.58;94813.00;5054826;28;20236;-59
2022/09/27 04:18:04;;;;;;;1.48;1.00;;;;;;;21.52;76.69;94811.84;5052826;27;20213;-61
2022/09/27 04:20:35;;;;;;;1.00;0.85;;;;;;;21.48;76.76;94799.91;5060404;28;20240;-61
2022/09/27 04:23:08;;;;;;;0.80;0.80;;;;;;;21.48;76.69;94808.97;5062453;28;20202;-60
2022/09/27 04:25:39;;;;;;;1.70;0.77;;;;;;;21.52;76.53;94817.34;5055941;28;20256;-60
2022/09/27 04:28:18;;;;;;;0.75;0.70;;;;;;;21.50;76.69;94823.16;5063202;27;20276;-60
2022/09/27 04:30:46;;;;;;;1.35;1.02;;;;;;;21.52;76.59;94828.31;5056359;28;20263;-60
2022/09/27 04:33:13;;;;;;;0.90;0.90;;;;;;;21.53;76.54;94824.41;5050881;28;20241;-60
2022/09/27 04:39:09;;;;;;;1.00;0.90;;;;;;;21.53;76.49;94849.13;5058091;28;20201;-59
2022/09/27 04:41:40;;;;;;;1.02;0.80;;;;;;;21.50;76.50;94856.13;5048471;28;20201;-60
2022/09/27 04:44:07;;;;;;;1.10;1.00;;;;;;;21.50;76.59;94864.34;5046530;28;20200;-60
2022/09/27 04:46:40;;;;;;;0.90;0.90;;;;;;;21.50;76.50;94858.88;5060058;27;20289;-60
2022/09/27 04:49:07;;;;;;;1.10;1.00;;;;;;;21.52;76.55;94866.78;5056015;28;20202;-60
2022/09/27 04:51:36;;;;;;;1.15;0.82;;;;;;;21.51;76.44;94862.41;5054356;28;20205;-60
2022/09/27 04:54:04;;;;;;;0.80;0.80;;;;;;;21.50;76.61;94860.81;5059866;28;20253;-60
2022/09/27 04:56:39;;;;;;;1.58;0.80;;;;;;;21.49;76.63;94859.19;5060906;28;20293;-60
2022/09/27 04:59:09;;;;;;;0.80;0.80;;;;;;;21.48;76.62;94861.13;5050394;28;20286;-59
2022/09/27 05:01:36;;;;;;;0.70;0.70;;;;;;;21.48;76.64;94849.34;5064913;28;20206;-60
2022/09/27 05:04:22;;;;;;;0.82;0.80;;;;;;;21.47;76.73;94854.03;5052141;28;20209;-60
2022/09/27 05:06:51;;;;;;;0.75;0.75;;;;;;;21.47;76.57;94861.47;5056445;28;20274;-60
2022/09/27 05:09:24;;;;;;;2.28;0.90;;;;;;;21.47;76.54;94869.69;5059813;28;20206;-59
2022/09/27 05:11:55;;;;;;;1.35;0.77;;;;;;;21.48;76.66;94885.03;5053478;28;20258;-60
2022/09/27 05:14:40;;;;;;;1.17;0.80;;;;;;;21.47;76.64;94872.44;5046824;28;20222;-60
2022/09/27 05:17:30;;;;;;;1.10;0.85;;;;;;;21.47;76.63;94872.44;5066328;27;20222;-61
2022/09/27 05:20:15;;;;;;;1.42;0.70;;;;;;;21.47;76.71;94888.91;5054865;28;20253;-59
2022/09/27 05:22:50;;;;;;;0.80;0.80;;;;;;;21.45;76.67;94886.50;5048334;28;20202;-60
2022/09/27 05:25:18;;;;;;;1.17;0.95;;;;;;;21.44;76.69;94884.91;5062102;28;20266;-59
2022/09/27 05:27:47;;;;;;;0.80;0.80;;;;;;;21.44;76.71;94890.38;5051332;27;20194;-58
2022/09/27 05:30:14;;;;;;;0.77;0.77;;;;;;;21.45;76.71;94888.44;5052140;28;20285;-60
2022/09/27 05:32:48;;;;;;;0.70;0.70;;;;;;;21.43;76.68;94885.25;5045996;28;20198;-60
2022/09/27 05:35:46;;;;;;;0.80;0.80;;;;;;;21.45;76.79;94893.94;5044337;28;20230;-60
2022/09/27 05:38:14;;;;;;;1.45;0.70;;;;;;;21.44;76.78;94908.81;5049683;28;20289;-60
2022/09/27 05:40:46;;;;;;;1.75;0.80;;;;;;;21.44;76.84;94906.06;5049549;28;20290;-60
2022/09/27 05:43:15;;;;;;;0.77;0.77;;;;;;;21.43;76.89;94912.72;5048238;28;20206;-60
2022/09/27 05:45:42;;;;;;;0.80;0.80;;;;;;;21.44;76.94;94906.06;5055795;28;20213;-60
2022/09/27 05:48:12;;;;;;;0.75;0.75;;;;;;;21.44;76.85;94911.53;5061169;28;20202;-60
2022/09/27 05:50:46;;;;;;;0.80;0.80;;;;;;;21.45;76.62;94910.41;5053964;28;20268;-59
2022/09/27 05:53:13;;;;;;;0.80;0.73;;;;;;;21.43;77.00;94909.97;5051016;28;20217;-58
2022/09/27 05:55:41;;;;;;;0.88;0.80;;;;;;;21.43;76.99;94898.97;5075318;27;20217;-60
2022/09/27 05:58:15;;;;;;;0.70;0.70;;;;;;;21.43;76.83;94907.22;5056743;27;20209;-60
2022/09/27 06:00:51;;;;;;;0.80;0.80;;;;;;;21.43;76.94;94908.03;5056248;27;20206;-59
2022/09/27 06:03:45;;;;;;;0.80;0.80;;;;;;;21.43;76.84;94896.25;5051683;28;20201;-58
2022/09/27 06:06:44;;;;;;;0.73;0.73;;;;;;;21.43;76.91;94913.53;5033877;28;20218;-60
2022/09/27 06:09:13;;;;;;;0.80;0.80;;;;;;;21.45;76.94;94924.16;5051356;28;20278;-60
2022/09/27 06:11:40;;;;;;;0.80;0.80;;;;;;;21.44;76.71;94928.03;5059331;27;20234;-60
2022/09/27 06:14:07;;;;;;;0.70;0.70;;;;;;;21.45;76.96;94924.94;5055699;28;20270;-60
2022/09/27 06:16:44;;;;;;;0.80;0.80;;;;;;;21.45;76.93;94930.44;5047204;28;20204;-60
2022/09/27 06:19:11;;;;;;;0.82;0.77;;;;;;;21.45;76.87;94940.63;5049281;27;20201;-60
2022/09/27 06:21:39;;;;;;;0.90;0.80;;;;;;;21.46;76.81;94942.22;5048844;28;20213;-60
2022/09/27 06:24:06;;;;;;;0.73;0.73;;;;;;;21.45;76.79;94935.13;5056129;27;20197;-59
2022/09/27 06:26:36;;;;;;;0.70;0.70;;;;;;;21.45;76.86;94940.63;5052914;27;20198;-60
2022/09/27 06:29:14;;;;;;;1.23;0.93;;;;;;;21.45;76.76;94962.59;5047845;28;20198;-59
2022/09/27 06:31:55;;;;;;;2.45;0.65;;;;;;;21.45;76.75;94962.59;5054938;27;20250;-58
2022/09/27 06:34:47;;;;;;;1.08;0.85;;;;;;;21.45;76.64;94957.09;5051088;28;20293;-60
2022/09/27 06:37:14;;;;;;;0.77;0.77;;;;;;;21.44;76.77;94942.56;5054374;28;20198;-60
2022/09/27 06:39:41;;;;;;;1.00;0.90;;;;;;;21.46;76.80;94954.03;5050531;27;20211;-60
2022/09/27 06:42:32;;;;;;;0.70;0.70;;;;;;;21.43;76.61;94965.69;5049151;27;20241;-60
2022/09/27 06:45:20;;;;;;;0.70;0.70;;;;;;;21.46;76.68;94969.69;5045560;28;20235;-60
2022/09/27 06:48:09;;;;;;;0.98;0.80;;;;;;;21.47;76.71;94960.31;5059147;28;20228;-60
2022/09/27 06:50:47;;;;;;;0.70;0.70;;;;;;;21.47;76.76;94957.56;5045852;28;20321;-59
2022/09/27 06:53:16;;;;;;;0.75;0.75;;;;;;;21.47;76.80;94971.31;5050302;27;20210;-60
2022/09/27 06:55:44;;;;;;;0.70;0.70;;;;;;;21.46;76.83;94975.19;5056134;28;20209;-60
2022/09/27 07:01:27;;;;;;;0.80;0.80;;;;;;;21.47;77.67;94980.34;5029348;28;20217;-46
2022/09/27 07:04:32;;;;;;;2.13;1.00;;;;;;;21.54;80.48;94993.53;5053764;28;20209;-38
2022/09/27 07:14:12;;;;;;;1.67;1.03;;;;;;;14.62;91.86;94983.47;5092332;27;20294;-77
2022/09/27 07:16:40;;;;;;;0.80;0.80;;;;;;;13.13;100.00;94993.03;5105008;28;20221;-76
2022/09/27 07:19:10;;;;;;;1.33;0.83;;;;;;;12.06;100.00;94997.97;5085296;28;20212;-76
2022/09/27 07:21:37;;;;;;;1.50;0.97;;;;;;;11.29;100.00;95008.97;5093701;28;20205;-76
2022/09/27 07:24:05;;;;;;;1.17;1.07;;;;;;;10.73;100.00;94999.84;5096380;28;20225;-76
2022/09/27 07:26:33;;;;;;;1.70;1.23;;;;;;;10.46;100.00;94997.31;5086939;28;20208;-76
2022/09/27 07:29:00;;;;;;;0.80;0.70;;;;;;;10.41;100.00;94999.97;5090313;28;20211;-76
2022/09/27 07:31:30;;;;;;;1.83;1.20;;;;;;;10.29;100.00;95016.38;5097572;28;20211;-76
2022/09/27 07:33:57;;;;;;;1.93;0.80;;;;;;;10.21;100.00;95020.38;5097275;28;20218;-76
2022/09/27 07:36:24;;;;;;;2.07;1.53;;;;;;;10.13;100.00;95015.41;5098899;28;20227;-76
2022/09/27 07:38:51;;;;;;;1.67;0.90;;;;;;;10.09;100.00;95016.22;5091805;28;20215;-76
2022/09/27 07:41:19;;;;;;;1.60;0.90;;;;;;;10.04;100.00;95019.66;5094664;28;20200;-76
2022/09/27 07:43:47;;;;;;;2.63;0.80;;;;;;;10.13;100.00;95033.50;5099212;28;20274;-76
2022/09/27 07:46:15;;;;;;;1.90;1.00;;;;;;;10.04;100.00;95038.56;5095934;28;20200;-76
2022/09/27 07:49:08;;;;;;;1.17;0.90;;;;;;;9.96;100.00;95038.22;5091098;28;20211;-76
2022/09/27 07:51:35;;;;;;;0.73;0.73;;;;;;;9.92;100.00;95045.22;5100481;28;20285;-76
2022/09/27 07:54:18;;;;;;;1.23;1.00;;;;;;;9.93;100.00;95049.53;5097453;28;20244;-76
2022/09/27 07:56:50;;;;;;;2.40;0.90;;;;;;;9.92;100.00;95058.69;5110784;28;20214;-76
2022/09/27 07:59:20;;;;;;;0.80;0.70;;;;;;;9.94;100.00;95067.34;5091395;28;20201;-76
2022/09/27 08:01:47;;;;;;;0.70;0.70;;;;;;;9.88;100.00;95056.50;5111706;28;20201;-76
2022/09/27 08:04:16;;;;;;;2.07;0.90;;;;;;;9.84;100.00;95058.09;5094879;28;20216;-76
2022/09/27 08:06:43;;;;;;;0.90;0.70;;;;;;;9.90;100.00;95072.41;5099671;28;20210;-76
2022/09/27 08:09:11;;;;;;;0.73;0.73;;;;;;;9.85;100.00;95070.50;5099831;28;20201;-76
2022/09/27 08:11:39;;;;;;;0.70;0.70;;;;;;;9.97;100.00;95070.31;5097591;28;20209;-76
2022/09/27 08:14:09;;;;;;;1.27;0.80;;;;;;;10.01;100.00;95066.06;5094746;28;20240;-76
2022/09/27 08:16:39;;;;;;;0.77;0.63;;;;;;;10.02;100.00;95069.56;5098838;28;20271;-77
2022/09/27 08:19:26;;;;;;;1.63;0.90;;;;;;;9.98;100.00;95074.66;5092699;28;20342;-76
2022/09/27 08:22:13;;;;;;;1.00;0.90;;;;;;;9.95;100.00;95074.38;5098476;28;20204;-76
2022/09/27 08:25:01;;;;;;;0.70;0.70;;;;;;;9.96;100.00;95070.56;5081083;28;20220;-76
2022/09/27 08:27:40;;;;;;;0.87;0.80;;;;;;;10.01;100.00;95078.72;5080369;28;20217;-76
2022/09/27 08:30:27;;;;;;;1.33;0.80;;;;;;;10.10;100.00;95087.97;5083826;28;20219;-76
2022/09/27 08:32:57;;;;;;;1.60;0.90;;;;;;;10.08;100.00;95087.41;5085249;28;20223;-75
2022/09/27 08:35:28;;;;;;;0.83;0.80;;;;;;;10.23;100.00;95088.34;5067120;28;20212;-76
2022/09/27 08:37:58;;;;;;;1.97;1.10;;;;;;;10.16;100.00;95086.94;5069853;28;20212;-76
2022/09/27 08:40:38;;;;;;;1.20;1.10;;;;;;;10.14;100.00;95089.88;5068323;28;20240;-76
2022/09/27 08:43:16;;;;;;;1.60;0.83;;;;;;;9.97;100.00;95078.41;5085691;28;20259;-76
2022/09/27 08:46:00;;;;;;;2.30;1.20;;;;;;;10.06;100.00;95103.03;5075196;28;20197;-76
2022/09/27 08:48:30;;;;;;;2.23;1.20;;;;;;;10.13;100.00;95104.44;5072133;28;20251;-76
2022/09/27 08:51:01;;;;;;;1.50;1.00;;;;;;;10.18;100.00;95106.41;5087748;28;20208;-76
2022/09/27 08:53:37;;;;;;;2.77;0.90;;;;;;;10.17;100.00;95110.97;5077987;28;20208;-76
2022/09/27 08:56:08;;;;;;;1.33;1.10;;;;;;;10.13;100.00;95114.41;5076524;28;20297;-76
2022/09/27 08:58:46;;;;;;;1.60;0.90;;;;;;;10.18;100.00;95117.19;5080946;28;20189;-76
2022/09/27 09:01:20;;;;;;;1.50;1.10;;;;;;;10.06;100.00;95116.50;5074041;28;20212;-76
2022/09/27 09:03:59;;;;;;;2.33;1.07;;;;;;;10.06;100.00;95120.00;5081465;28;20221;-76
2022/09/27 09:06:35;;;;;;;1.37;0.90;;;;;;;10.20;100.00;95113.19;5079250;28;20292;-75
2022/09/27 09:09:16;;;;;;;2.03;0.90;;;;;;;10.15;100.00;95101.47;5080911;28;20501;-76
2022/09/27 09:15:07;;;;;;;1.00;0.90;;;;;;;10.55;100.00;95095.59;5077910;28;20331;-75
2022/09/27 09:17:51;;;;;;;1.60;1.50;;;;;;;10.77;100.00;95098.16;5068350;28;20307;-76
2022/09/27 09:20:58;;;;;;;2.77;1.33;;;;;;;10.96;100.00;95102.88;5072021;28;20633;-76
2022/09/27 09:23:56;;;;;;;1.50;1.00;;;;;;;11.08;100.00;95099.94;5071426;28;20233;-75
2022/09/27 09:26:29;;;;;;;1.30;0.80;;;;;;;11.12;100.00;95090.22;5072251;28;20295;-76
2022/09/27 09:29:10;;;;;;;1.53;0.70;;;;;;;11.10;100.00;95095.09;5076680;28;20216;-75
2022/09/27 09:31:42;;;;;;;2.07;1.00;;;;;;;11.29;100.00;95088.13;5080505;28;20296;-75
2022/09/27 09:34:15;;;;;;;0.93;0.83;;;;;;;11.33;100.00;95075.69;5083744;28;20205;-75
2022/09/27 09:36:48;;;;;;;1.33;0.90;;;;;;;11.36;100.00;95068.97;5071248;28;20202;-75
2022/09/27 09:39:19;;;;;;;0.83;0.83;;;;;;;11.37;100.00;95070.59;5087151;28;20298;-76
2022/09/27 09:42:02;;;;;;;2.70;1.10;;;;;;;11.59;100.00;95078.47;5069258;28;20201;-75
2022/09/27 09:44:34;;;;;;;1.77;0.90;;;;;;;11.66;100.00;95082.53;5074690;28;20212;-75
2022/09/27 09:47:12;;;;;;;2.30;0.90;;;;;;;11.65;100.00;95080.13;5082072;28;20201;-75
2022/09/27 09:49:44;;;;;;;1.03;0.90;;;;;;;11.55;100.00;95085.50;5076704;28;20308;-75
2022/09/27 09:52:14;;;;;;;2.03;1.00;;;;;;;11.40;100.00;95075.44;5076222;28;20216;-75
2022/09/27 09:54:46;;;;;;;1.07;0.80;;;;;;;11.41;100.00;95071.66;5078392;28;20212;-75
2022/09/27 09:57:20;;;;;;;1.10;0.90;;;;;;;11.57;100.00;95070.63;5080168;28;20279;-75
2022/09/27 09:59:53;;;;;;;1.20;1.10;;;;;;;11.47;100.00;95065.22;5076745;28;20201;-75
2022/09/27 10:02:32;;;;;;;1.57;1.30;;;;;;;11.57;100.00;95059.81;5091615;28;20193;-75
2022/09/27 10:05:07;;;;;;;3.00;1.43;;;;;;;11.69;100.00;95067.69;5092882;28;20285;-75
2022/09/27 10:07:37;;;;;;;1.33;1.20;;;;;;;11.66;100.00;95071.72;5078949;28;20291;-75
2022/09/27 10:10:07;;;;;;;2.77;1.07;;;;;;;11.67;100.00;95069.84;5088481;28;20227;-75
2022/09/27 10:13:15;;;;;;;1.10;0.90;;;;;;;11.71;100.00;95052.00;5073930;28;20248;-75
2022/09/27 10:15:49;;;;;;;2.13;1.43;;;;;;;11.76;100.00;95052.03;5074864;28;20230;-75
2022/09/27 10:18:19;;;;;;;0.93;0.90;;;;;;;11.54;100.00;95063.06;5075788;28;20312;-74
2022/09/27 10:20:52;;;;;;;1.50;0.80;;;;;;;11.45;100.00;95069.25;5071640;28;20278;-75
2022/09/27 10:23:21;;;;;;;1.33;0.90;;;;;;;11.47;100.00;95059.81;5078940;28;20232;-74
2022/09/27 10:26:09;;;;;;;1.17;1.00;;;;;;;11.73;100.00;95052.56;5073982;28;20240;-75
2022/09/27 10:28:49;;;;;;;1.83;1.00;;;;;;;11.87;100.00;95053.69;5085137;28;20201;-76
2022/09/27 10:31:22;;;;;;;1.00;0.90;;;;;;;11.84;100.00;95042.56;5077139;28;20226;-75
2022/09/27 10:34:00;;;;;;;1.10;0.80;;;;;;;11.81;100.00;95043.94;5075860;28;20237;-75
2022/09/27 10:36:29;;;;;;;1.63;1.03;;;;;;;11.86;100.00;95052.06;5080170;28;20261;-75
2022/09/27 10:38:59;;;;;;;1.27;0.90;;;;;;;11.88;100.00;95049.06;5077324;28;20212;-75
2022/09/27 10:41:37;;;;;;;1.10;0.90;;;;;;;12.01;100.00;95049.34;5086789;28;20209;-75
2022/09/27 10:44:25;;;;;;;1.27;1.00;;;;;;;12.10;100.00;95052.31;5074929;28;20220;-75
2022/09/27 10:47:07;;;;;;;1.93;1.00;;;;;;;12.19;100.00;95047.16;5081490;28;20229;-75
2022/09/27 10:50:04;;;;;;;1.40;1.00;;;;;;;12.16;100.00;95051.25;5069896;28;20204;-75
2022/09/27 10:53:03;;;;;;;1.67;0.90;;;;;;;12.11;100.00;95046.63;5072573;28;20277;-76
2022/09/27 10:55:33;;;;;;;1.10;1.00;;;;;;;12.11;100.00;95048.53;5076337;28;20225;-75
2022/09/27 10:58:02;;;;;;;1.73;1.13;;;;;;;12.21;100.00;95055.84;5075939;28;20209;-75
2022/09/27 11:00:33;;;;;;;2.07;1.00;;;;;;;12.15;100.00;95038.00;5077106;28;20271;-75
2022/09/27 11:03:06;;;;;;;2.87;0.80;;;;;;;12.28;100.00;95061.78;5080850;28;20261;-75
2022/09/27 11:05:38;;;;;;;3.07;1.30;;;;;;;12.42;100.00;95043.88;5077029;28;20201;-75
2022/09/27 11:08:23;;;;;;;1.30;1.10;;;;;;;12.29;100.00;95039.06;5073478;28;20209;-75
2022/09/27 11:11:25;;;;;;;1.70;0.93;;;;;;;12.41;100.00;95029.56;5070920;28;20212;-75
2022/09/27 11:14:01;;;;;;;1.53;1.30;;;;;;;12.54;100.00;95033.59;5080138;28;20281;-75
2022/09/27 11:17:06;;;;;;;2.93;0.90;;;;;;;12.55;100.00;95043.34;5077527;28;20244;-75
2022/09/27 11:19:58;;;;;;;1.10;1.00;;;;;;;12.66;100.00;95027.88;5078420;28;20209;-76
2022/09/27 11:22:40;;;;;;;2.30;0.80;;;;;;;12.71;100.00;95020.56;5058881;28;20229;-75
2022/09/27 11:25:18;;;;;;;3.43;2.23;;;;;;;12.83;100.00;95034.59;5075214;28;20217;-76
2022/09/27 11:28:01;;;;;;;0.70;0.70;;;;;;;12.79;100.00;95022.69;5089933;28;20232;-75
2022/09/27 11:30:45;;;;;;;1.13;0.97;;;;;;;12.80;100.00;95018.09;5093842;28;20288;-75
2022/09/27 11:34:02;;;;;;;2.20;1.20;;;;;;;12.99;100.00;95023.72;5071242;28;20205;-75
2022/09/27 11:36:43;;;;;;;1.60;1.20;;;;;;;12.97;100.00;95012.34;5074667;28;20224;-75
2022/09/27 11:39:22;;;;;;;1.10;1.00;;;;;;;12.87;100.00;95021.31;5075270;28;20213;-75
2022/09/27 11:42:07;;;;;;;1.47;1.20;;;;;;;13.01;100.00;95013.41;5078266;28;20201;-75
2022/09/27 11:44:54;;;;;;;2.00;1.40;;;;;;;13.09;100.00;95015.53;5082733;28;20224;-75
2022/09/27 11:47:40;;;;;;;2.30;1.23;;;;;;;13.16;100.00;95022.31;5086129;28;20280;-75
2022/09/27 11:50:30;;;;;;;1.53;1.00;;;;;;;13.25;100.00;95026.06;5074725;28;20271;-75
2022/09/27 11:53:13;;;;;;;1.67;0.90;;;;;;;13.27;99.79;95016.84;5077544;28;20240;-75
2022/09/27 11:55:49;;;;;;;1.43;1.00;;;;;;;13.42;100.00;95024.88;5090057;28;20209;-75
2022/09/27 11:58:26;;;;;;;1.20;1.07;;;;;;;13.46;100.00;95026.75;5077708;28;20331;-75
2022/09/27 12:01:11;;;;;;;1.67;1.00;;;;;;;13.50;100.00;95027.81;5077716;28;20201;-75
2022/09/27 12:04:17;;;;;;;0.93;0.83;;;;;;;13.50;98.44;95030.53;5087660;28;20274;-75
2022/09/27 12:06:58;;;;;;;0.80;0.80;;;;;;;13.45;93.41;95035.97;5072347;28;20204;-75
2022/09/27 12:09:30;;;;;;;1.50;0.70;;;;;;;13.25;92.32;95014.41;5083139;28;20232;-75
2022/09/27 12:12:02;;;;;;;1.47;0.70;;;;;;;13.33;93.63;95021.13;5096520;28;20211;-75
2022/09/27 12:14:36;;;;;;;1.27;0.80;;;;;;;13.49;92.18;95023.47;5082675;28;20221;-75
2022/09/27 12:17:05;;;;;;;0.70;0.70;;;;;;;13.43;89.61;95021.91;5081643;28;20264;-75
2022/09/27 12:19:40;;;;;;;1.60;0.80;;;;;;;13.41;89.70;95015.94;5073975;28;20219;-76
2022/09/27 12:22:23;;;;;;;1.27;0.80;;;;;;;13.48;91.28;95008.31;5078585;28;20240;-75
2022/09/27 12:24:51;;;;;;;0.83;0.80;;;;;;;13.69;89.29;95013.59;5083969;28;20229;-75
2022/09/27 12:27:44;;;;;;;1.30;1.20;;;;;;;13.98;86.28;95017.97;5073994;28;20504;-75
2022/09/27 12:30:16;;;;;;;1.97;1.00;;;;;;;14.02;85.93;95010.09;5086219;28;20213;-75